Time;durP1;ratioP1;P1;durP2;ratioP2;P2;SDS_P1;SDS_P2;PMS_P1;PMS_P2;Temp;Humidity;BMP_temperature;BMP_pressure;BME280_temperature;BME280_humidity;BME280_pressure;Samples;Min_cycle;Max_cycle;Signal;HPM_P1;HPM_P2
2022/01/07 00:01:06;;;;;;;;;;;6.50;90.80;;;;;;4917339;28;19918;-60
2022/01/07 00:03:32;;;;;;;;;;;6.40;90.80;;;;;;4917441;28;19917;-59
2022/01/07 00:05:59;;;;;;;;;;;6.50;90.80;;;;;;4931635;29;19929;-60
2022/01/07 00:08:24;;;;;;;;;;;6.40;90.80;;;;;;4911921;29;20370;-59
2022/01/07 00:10:50;;;;;;;;;;;6.40;90.80;;;;;;4927285;29;19930;-60
2022/01/07 00:13:15;;;;;;;;;;;6.40;90.80;;;;;;4931150;29;19915;-59
2022/01/07 00:15:41;;;;;;;;;;;6.40;90.80;;;;;;4919127;29;20322;-59
2022/01/07 00:18:06;;;;;;;;;;;6.40;90.80;;;;;;4922122;29;19923;-60
2022/01/07 00:20:32;;;;;;;;;;;6.40;90.80;;;;;;4930676;29;19911;-60
2022/01/07 00:22:57;;;;;;;;;;;6.40;90.80;;;;;;4915508;28;19917;-59
2022/01/07 00:25:24;;;;;;;;;;;6.40;90.80;;;;;;4928480;29;19974;-59
2022/01/07 00:27:50;;;;;;;;;;;6.40;90.80;;;;;;4929361;28;19922;-59
2022/01/07 00:30:15;;;;;;;;;;;6.40;90.80;;;;;;4917936;29;19910;-60
2022/01/07 00:32:41;;;;;;;;;;;6.40;90.80;;;;;;4933071;28;19914;-60
2022/01/07 00:35:06;;;;;;;;;;;6.40;90.80;;;;;;4918695;29;19929;-59
2022/01/07 00:37:32;;;;;;;;;;;6.30;90.80;;;;;;4913772;29;19965;-60
2022/01/07 00:39:57;;;;;;;;;;;6.30;90.80;;;;;;4922261;29;19946;-61
2022/01/07 00:42:23;;;;;;;;;;;6.30;90.90;;;;;;4924813;29;20419;-62
2022/01/07 00:44:48;;;;;;;;;;;6.30;90.80;;;;;;4954616;28;19918;-59
2022/01/07 00:47:15;;;;;;;;;;;6.30;90.70;;;;;;4932465;28;19918;-59
2022/01/07 00:49:41;;;;;;;;;;;6.30;90.70;;;;;;4919129;29;19911;-60
2022/01/07 00:52:06;;;;;;;;;;;6.30;90.80;;;;;;4914908;29;19942;-60
2022/01/07 00:54:32;;;;;;;;;;;6.30;90.80;;;;;;4915020;29;20001;-59
2022/01/07 00:56:57;;;;;;;;;;;6.30;90.80;;;;;;4943609;28;19914;-60
2022/01/07 00:59:23;;;;;;;;;;;6.30;90.80;;;;;;4915675;29;19914;-59
2022/01/07 01:01:48;;;;;;;;;;;6.30;90.80;;;;;;4935170;28;20283;-60
2022/01/07 01:04:14;;;;;;;;;;;6.30;90.80;;;;;;4927420;29;19910;-59
2022/01/07 01:06:41;;;;;;;;;;;6.30;90.80;;;;;;4917500;28;20380;-60
2022/01/07 01:09:08;;;;;;;;;;;6.20;90.70;;;;;;4915026;29;20210;-59
2022/01/07 01:11:34;;;;;;;;;;;6.20;90.80;;;;;;4926283;28;20360;-60
2022/01/07 01:13:59;;;;;;;;;;;6.20;90.80;;;;;;4914917;29;19910;-60
2022/01/07 01:16:25;;;;;;;;;;;6.20;90.80;;;;;;4915720;28;19959;-59
2022/01/07 01:18:50;;;;;;;;;;;6.20;90.80;;;;;;4915676;29;19921;-59
2022/01/07 01:21:15;;;;;;;;;;;6.00;90.70;;;;;;4937776;28;19918;-59
2022/01/07 01:23:45;;;;;;;;;;;6.20;90.80;;;;;;4917999;29;20382;-60
2022/01/07 01:26:10;;;;;;;;;;;6.20;90.80;;;;;;4940810;29;19926;-60
2022/01/07 01:28:36;;;;;;;;;;;6.20;90.70;;;;;;4912344;29;19914;-60
2022/01/07 01:31:01;;;;;;;;;;;6.20;90.80;;;;;;4932425;29;19970;-60
2022/01/07 01:33:27;;;;;;;;;;;6.20;90.80;;;;;;4916649;29;19915;-60
2022/01/07 01:35:52;;;;;;;;;;;6.20;90.80;;;;;;4933066;29;20593;-62
2022/01/07 01:38:18;;;;;;;;;;;6.20;90.90;;;;;;4917263;29;19914;-62
2022/01/07 01:40:43;;;;;;;;;;;6.20;90.90;;;;;;4949783;28;19921;-62
2022/01/07 01:43:09;;;;;;;;;;;6.20;90.90;;;;;;4932874;29;20450;-62
2022/01/07 01:45:34;;;;;;;;;;;6.20;90.80;;;;;;4933807;28;20394;-62
2022/01/07 01:48:00;;;;;;;;;;;6.20;90.70;;;;;;4915757;29;19922;-62
2022/01/07 01:50:25;;;;;;;;;;;6.10;90.70;;;;;;4927637;28;19930;-60
2022/01/07 01:52:56;;;;;;;;;;;6.10;90.70;;;;;;4907093;29;19914;-60
2022/01/07 01:55:22;;;;;;;;;;;6.10;90.70;;;;;;4937792;28;19937;-60
2022/01/07 01:57:50;;;;;;;;;;;6.10;90.70;;;;;;4931150;28;20346;-61
2022/01/07 02:00:15;;;;;;;;;;;6.10;90.70;;;;;;4912736;28;19915;-60
2022/01/07 02:02:41;;;;;;;;;;;6.10;90.70;;;;;;4945224;28;22089;-59
2022/01/07 02:05:07;;;;;;;;;;;6.10;90.70;;;;;;4938871;28;19964;-60
2022/01/07 02:07:34;;;;;;;;;;;6.10;90.70;;;;;;4955515;28;19997;-60
2022/01/07 02:10:01;;;;;;;;;;;6.10;90.70;;;;;;4923252;28;20005;-59
2022/01/07 02:12:26;;;;;;;;;;;6.10;90.70;;;;;;4912504;28;19914;-59
2022/01/07 02:14:52;;;;;;;;;;;6.10;90.70;;;;;;4934054;28;19914;-60
2022/01/07 02:17:18;;;;;;;;;;;6.10;91.00;;;;;;4910070;28;19926;-60
2022/01/07 02:19:44;;;;;;;;;;;6.10;90.70;;;;;;4926959;28;19922;-60
2022/01/07 02:22:09;;;;;;;;;;;6.10;90.80;;;;;;4923001;28;20286;-59
2022/01/07 02:24:37;;;;;;;;;;;6.00;90.70;;;;;;4927992;28;19964;-59
2022/01/07 02:27:02;;;;;;;;;;;6.10;90.70;;;;;;4927364;28;19918;-59
2022/01/07 02:29:28;;;;;;;;;;;6.10;90.70;;;;;;4922493;29;19918;-60
2022/01/07 02:31:53;;;;;;;;;;;6.00;91.00;;;;;;4921438;28;20367;-60
2022/01/07 02:34:19;;;;;;;;;;;6.00;90.70;;;;;;4929862;28;19930;-60
2022/01/07 02:36:44;;;;;;;;;;;6.00;90.70;;;;;;4917759;28;19922;-60
2022/01/07 02:39:10;;;;;;;;;;;6.10;90.80;;;;;;4930099;28;19918;-60
2022/01/07 02:41:35;;;;;;;;;;;6.00;90.80;;;;;;4927230;28;20213;-60
2022/01/07 02:44:01;;;;;;;;;;;6.10;90.80;;;;;;4945008;28;19914;-60
2022/01/07 02:46:26;;;;;;;;;;;6.10;90.80;;;;;;4917541;28;19918;-60
2022/01/07 02:48:52;;;;;;;;;;;6.00;90.70;;;;;;4929137;28;19921;-59
2022/01/07 02:51:17;;;;;;;;;;;6.10;90.70;;;;;;4924998;28;19919;-60
2022/01/07 02:53:43;;;;;;;;;;;6.00;90.70;;;;;;4950612;28;19914;-60
2022/01/07 02:56:08;;;;;;;;;;;6.00;90.70;;;;;;4939463;28;20041;-60
2022/01/07 02:58:34;;;;;;;;;;;6.10;90.70;;;;;;4934183;28;19958;-60
2022/01/07 03:00:59;;;;;;;;;;;6.10;90.70;;;;;;4921935;29;19922;-60
2022/01/07 03:03:25;;;;;;;;;;;6.10;90.70;;;;;;4924292;28;19910;-60
2022/01/07 03:05:50;;;;;;;;;;;6.00;90.70;;;;;;4926552;29;19923;-60
2022/01/07 03:08:15;;;;;;;;;;;6.00;90.70;;;;;;4927654;28;19921;-60
2022/01/07 03:10:41;;;;;;;;;;;6.00;90.70;;;;;;4919189;29;20017;-60
2022/01/07 03:13:06;;;;;;;;;;;6.00;90.70;;;;;;4920964;29;19918;-60
2022/01/07 03:15:37;;;;;;;;;;;6.00;90.70;;;;;;4926541;29;19912;-60
2022/01/07 03:18:03;;;;;;;;;;;6.00;90.60;;;;;;4922802;29;20315;-60
2022/01/07 03:20:28;;;;;;;;;;;6.10;90.70;;;;;;4935053;28;19917;-60
2022/01/07 03:22:54;;;;;;;;;;;6.00;90.70;;;;;;4932059;29;19918;-60
2022/01/07 03:25:20;;;;;;;;;;;6.10;90.90;;;;;;4935439;28;19946;-60
2022/01/07 03:27:45;;;;;;;;;;;6.00;90.80;;;;;;4931859;29;19953;-60
2022/01/07 03:30:11;;;;;;;;;;;6.00;90.70;;;;;;4920013;28;19961;-60
2022/01/07 03:32:37;;;;;;;;;;;6.10;90.70;;;;;;4915454;29;19965;-60
2022/01/07 03:35:03;;;;;;;;;;;6.00;90.70;;;;;;4920476;28;20365;-59
2022/01/07 03:37:28;;;;;;;;;;;6.10;90.70;;;;;;4943900;28;20335;-60
2022/01/07 03:39:54;;;;;;;;;;;6.00;90.70;;;;;;4910726;28;19965;-60
2022/01/07 03:42:19;;;;;;;;;;;6.00;90.60;;;;;;4936966;28;19914;-60
2022/01/07 03:44:45;;;;;;;;;;;6.00;90.70;;;;;;4913890;28;20383;-60
2022/01/07 03:47:10;;;;;;;;;;;6.00;90.60;;;;;;4955713;28;19918;-60
2022/01/07 03:49:35;;;;;;;;;;;6.00;90.60;;;;;;4921319;28;19965;-60
2022/01/07 03:52:01;;;;;;;;;;;6.00;90.60;;;;;;4916185;29;19973;-61
2022/01/07 03:54:26;;;;;;;;;;;6.00;90.70;;;;;;4933424;28;20435;-60
2022/01/07 03:56:52;;;;;;;;;;;6.00;90.70;;;;;;4922805;28;20342;-60
2022/01/07 03:59:17;;;;;;;;;;;6.00;90.70;;;;;;4919849;28;19910;-60
2022/01/07 04:01:43;;;;;;;;;;;6.10;90.70;;;;;;4935423;28;19922;-60
2022/01/07 04:04:08;;;;;;;;;;;6.10;90.70;;;;;;4910776;28;19911;-60
2022/01/07 04:06:34;;;;;;;;;;;6.00;90.70;;;;;;4940670;28;19981;-59
2022/01/07 04:08:59;;;;;;;;;;;6.10;90.70;;;;;;4933114;28;19921;-60
2022/01/07 04:11:25;;;;;;;;;;;6.10;90.80;;;;;;4925457;28;20008;-60
2022/01/07 04:13:50;;;;;;;;;;;6.10;90.80;;;;;;4916344;28;19918;-64
2022/01/07 04:16:15;;;;;;;;;;;6.10;90.70;;;;;;4949731;28;20009;-60
2022/01/07 04:18:41;;;;;;;;;;;6.10;90.70;;;;;;4924854;29;19970;-60
2022/01/07 04:21:06;;;;;;;;;;;6.10;90.70;;;;;;4910622;28;19923;-60
2022/01/07 04:23:32;;;;;;;;;;;6.10;90.70;;;;;;4917132;29;19961;-59
2022/01/07 04:25:57;;;;;;;;;;;6.10;90.60;;;;;;4920606;29;20268;-59
2022/01/07 04:28:23;;;;;;;;;;;6.10;90.60;;;;;;4901701;29;19915;-60
2022/01/07 04:30:48;;;;;;;;;;;6.10;90.60;;;;;;4902745;29;19911;-60
2022/01/07 04:33:15;;;;;;;;;;;6.00;90.70;;;;;;4908707;29;19915;-60
2022/01/07 04:35:41;;;;;;;;;;;6.00;90.60;;;;;;4932161;29;19915;-60
2022/01/07 04:38:07;;;;;;;;;;;6.00;90.50;;;;;;4929782;29;20039;-61
2022/01/07 04:40:32;;;;;;;;;;;6.00;90.50;;;;;;4923057;28;19910;-60
2022/01/07 04:42:58;;;;;;;;;;;6.00;90.50;;;;;;4923071;29;19919;-60
2022/01/07 04:45:24;;;;;;;;;;;6.00;90.50;;;;;;4920441;28;19914;-60
2022/01/07 04:47:49;;;;;;;;;;;6.00;90.60;;;;;;4950176;28;20440;-60
2022/01/07 04:50:16;;;;;;;;;;;6.00;90.50;;;;;;4919288;28;20006;-60
2022/01/07 04:52:44;;;;;;;;;;;6.00;90.50;;;;;;4924466;29;19918;-60
2022/01/07 04:55:10;;;;;;;;;;;6.00;90.60;;;;;;4919744;28;20426;-60
2022/01/07 04:57:35;;;;;;;;;;;6.00;90.80;;;;;;4919471;28;19959;-60
2022/01/07 05:00:02;;;;;;;;;;;6.00;90.50;;;;;;4918131;28;19957;-60
2022/01/07 05:02:27;;;;;;;;;;;6.00;90.50;;;;;;4950615;28;20431;-60
2022/01/07 05:04:53;;;;;;;;;;;6.00;90.70;;;;;;4917672;28;20005;-60
2022/01/07 05:07:18;;;;;;;;;;;6.00;90.70;;;;;;4925549;28;20359;-60
2022/01/07 05:09:44;;;;;;;;;;;6.00;90.90;;;;;;4931019;28;19962;-59
2022/01/07 05:12:09;;;;;;;;;;;6.00;90.90;;;;;;4925874;28;19915;-60
2022/01/07 05:14:35;;;;;;;;;;;6.00;90.90;;;;;;4922423;28;19914;-60
2022/01/07 05:17:00;;;;;;;;;;;6.00;90.90;;;;;;4907523;29;20840;-60
2022/01/07 05:19:26;;;;;;;;;;;6.00;90.80;;;;;;4947788;29;19911;-60
2022/01/07 05:21:51;;;;;;;;;;;6.00;90.80;;;;;;4910669;29;19919;-60
2022/01/07 05:24:16;;;;;;;;;;;6.00;90.80;;;;;;4910139;29;20368;-60
2022/01/07 05:26:42;;;;;;;;;;;6.00;90.90;;;;;;4900393;29;19978;-60
2022/01/07 05:29:07;;;;;;;;;;;6.00;90.90;;;;;;4911026;29;19916;-60
2022/01/07 05:31:33;;;;;;;;;;;6.00;90.90;;;;;;4919683;29;19966;-59
2022/01/07 05:33:58;;;;;;;;;;;6.00;90.80;;;;;;4940127;28;19914;-60
2022/01/07 05:36:24;;;;;;;;;;;6.00;90.80;;;;;;4929130;28;19910;-59
2022/01/07 05:38:49;;;;;;;;;;;6.00;90.80;;;;;;4915820;29;19923;-60
2022/01/07 05:41:15;;;;;;;;;;;6.00;90.80;;;;;;4917090;29;19934;-60
2022/01/07 05:43:40;;;;;;;;;;;5.90;90.70;;;;;;4921811;29;20013;-60
2022/01/07 05:46:08;;;;;;;;;;;5.90;90.80;;;;;;4921313;29;19918;-61
2022/01/07 05:48:33;;;;;;;;;;;5.90;90.80;;;;;;4941250;29;19911;-60
2022/01/07 05:50:59;;;;;;;;;;;5.90;90.80;;;;;;4904331;29;19962;-60
2022/01/07 05:53:24;;;;;;;;;;;5.90;90.80;;;;;;4931600;29;20389;-60
2022/01/07 05:55:49;;;;;;;;;;;5.90;90.80;;;;;;4909632;29;19973;-60
2022/01/07 05:58:15;;;;;;;;;;;5.90;90.80;;;;;;4921480;29;19934;-60
2022/01/07 06:00:40;;;;;;;;;;;5.80;90.80;;;;;;4922161;29;20414;-60
2022/01/07 06:03:06;;;;;;;;;;;5.80;90.70;;;;;;4931193;29;19918;-60
2022/01/07 06:05:32;;;;;;;;;;;5.80;90.70;;;;;;4903062;29;19919;-59
2022/01/07 06:07:57;;;;;;;;;;;5.80;91.00;;;;;;4944140;29;19922;-60
2022/01/07 06:10:22;;;;;;;;;;;5.80;90.70;;;;;;4938135;29;19915;-60
2022/01/07 06:12:48;;;;;;;;;;;5.80;90.70;;;;;;4936819;29;19914;-60
2022/01/07 06:15:13;;;;;;;;;;;5.80;90.70;;;;;;4928767;29;19962;-60
2022/01/07 06:17:39;;;;;;;;;;;5.80;90.70;;;;;;4953521;28;20358;-60
2022/01/07 06:20:05;;;;;;;;;;;5.80;90.70;;;;;;4920805;29;19911;-60
2022/01/07 06:22:30;;;;;;;;;;;5.70;90.60;;;;;;4914641;29;19938;-60
2022/01/07 06:24:56;;;;;;;;;;;5.70;90.70;;;;;;4917965;29;19931;-59
2022/01/07 06:27:21;;;;;;;;;;;5.70;90.60;;;;;;4932794;29;19923;-60
2022/01/07 06:29:47;;;;;;;;;;;5.70;90.70;;;;;;4933800;28;20393;-60
2022/01/07 06:32:12;;;;;;;;;;;5.70;90.70;;;;;;4938671;29;19922;-60
2022/01/07 06:34:38;;;;;;;;;;;5.70;90.60;;;;;;4936214;28;19926;-60
2022/01/07 06:37:03;;;;;;;;;;;5.80;90.70;;;;;;4916247;29;20413;-60
2022/01/07 06:39:29;;;;;;;;;;;5.70;90.60;;;;;;4929320;28;19988;-60
2022/01/07 06:41:57;;;;;;;;;;;5.70;90.60;;;;;;4954859;28;19914;-60
2022/01/07 06:44:22;;;;;;;;;;;5.60;90.50;;;;;;4954568;28;19945;-60
2022/01/07 06:46:48;;;;;;;;;;;5.60;90.60;;;;;;4948241;28;19950;-60
2022/01/07 06:49:16;;;;;;;;;;;5.60;90.60;;;;;;4938374;28;19914;-60
2022/01/07 06:51:42;;;;;;;;;;;5.70;90.60;;;;;;4928518;29;19915;-60
2022/01/07 06:54:11;;;;;;;;;;;5.60;90.50;;;;;;4904785;28;20014;-60
2022/01/07 06:56:40;;;;;;;;;;;5.60;90.60;;;;;;4933297;29;19911;-60
2022/01/07 06:59:06;;;;;;;;;;;5.60;90.60;;;;;;4912382;28;19951;-60
2022/01/07 07:01:31;;;;;;;;;;;5.60;90.70;;;;;;4927164;28;20312;-60
2022/01/07 07:03:57;;;;;;;;;;;5.60;90.60;;;;;;4922075;28;19965;-62
2022/01/07 07:06:22;;;;;;;;;;;5.50;90.60;;;;;;4934154;28;19918;-62
2022/01/07 07:08:48;;;;;;;;;;;5.60;90.60;;;;;;4935532;28;19989;-62
2022/01/07 07:11:13;;;;;;;;;;;5.50;90.50;;;;;;4907168;29;19919;-62
2022/01/07 07:13:39;;;;;;;;;;;5.50;90.50;;;;;;4964015;28;20429;-62
2022/01/07 07:16:04;;;;;;;;;;;5.50;90.60;;;;;;4929359;29;19911;-61
2022/01/07 07:18:30;;;;;;;;;;;5.50;90.60;;;;;;4917168;28;19922;-62
2022/01/07 07:20:55;;;;;;;;;;;5.50;90.50;;;;;;4934396;28;20435;-60
2022/01/07 07:23:21;;;;;;;;;;;5.50;90.50;;;;;;4925422;28;19918;-60
2022/01/07 07:25:46;;;;;;;;;;;5.50;90.50;;;;;;4935678;28;19917;-60
2022/01/07 07:28:11;;;;;;;;;;;5.40;90.50;;;;;;4912773;28;19928;-62
2022/01/07 07:30:40;;;;;;;;;;;5.40;90.40;;;;;;4934896;28;20291;-62
2022/01/07 07:38:47;;;;;;;;;;;5.40;90.40;;;;;;4942523;28;19933;-62
2022/01/07 07:41:13;;;;;;;;;;;5.40;90.40;;;;;;4919625;28;19918;-62
2022/01/07 07:43:38;;;;;;;;;;;5.40;90.30;;;;;;4929506;29;19911;-62
2022/01/07 07:46:04;;;;;;;;;;;5.40;90.30;;;;;;4932293;28;19956;-62
2022/01/07 07:48:33;;;;;;;;;;;5.30;90.20;;;;;;4922258;28;19922;-62
2022/01/07 07:50:58;;;;;;;;;;;5.30;90.20;;;;;;4945145;28;19917;-62
2022/01/07 07:53:24;;;;;;;;;;;5.30;90.30;;;;;;4914212;29;19922;-62
2022/01/07 07:55:53;;;;;;;;;;;5.30;90.20;;;;;;4924947;28;19923;-62
2022/01/07 07:58:22;;;;;;;;;;;5.30;90.20;;;;;;4925327;29;19970;-62
2022/01/07 08:00:47;;;;;;;;;;;5.30;90.20;;;;;;4926934;28;19938;-62
2022/01/07 08:03:13;;;;;;;;;;;5.30;90.10;;;;;;4926743;28;19918;-62
2022/01/07 08:05:38;;;;;;;;;;;5.30;90.10;;;;;;4931865;28;19914;-62
2022/01/07 08:08:04;;;;;;;;;;;5.30;90.10;;;;;;4913084;29;19918;-62
2022/01/07 08:10:30;;;;;;;;;;;5.30;90.10;;;;;;4931742;28;19970;-62
2022/01/07 08:18:19;;;;;;;;;;;5.30;90.00;;;;;;4917746;28;20310;-62
2022/01/07 08:20:45;;;;;;;;;;;5.20;90.00;;;;;;4916389;29;19926;-62
2022/01/07 08:23:11;;;;;;;;;;;5.20;90.00;;;;;;4936327;29;20464;-62
2022/01/07 08:25:37;;;;;;;;;;;5.20;90.00;;;;;;4913619;29;20116;-62
2022/01/07 08:28:04;;;;;;;;;;;5.20;90.00;;;;;;4929329;28;20771;-62
2022/01/07 08:30:36;;;;;;;;;;;5.20;90.00;;;;;;4951918;28;19919;-62
2022/01/07 08:35:46;;;;;;;;;;;5.20;89.70;;;;;;4930709;28;19929;-62
2022/01/07 08:38:12;;;;;;;;;;;5.20;89.70;;;;;;4928671;28;19918;-62
2022/01/07 08:40:37;;;;;;;;;;;5.20;89.60;;;;;;4937557;28;20021;-62
2022/01/07 08:43:03;;;;;;;;;;;5.20;89.50;;;;;;4923503;29;19921;-62
2022/01/07 08:45:28;;;;;;;;;;;5.20;89.50;;;;;;4942730;28;20522;-62
2022/01/07 08:47:54;;;;;;;;;;;5.20;89.50;;;;;;4917151;29;19930;-62
2022/01/07 08:50:19;;;;;;;;;;;5.20;89.50;;;;;;4937358;28;20010;-62
2022/01/07 08:52:45;;;;;;;;;;;5.30;89.40;;;;;;4911847;28;19918;-62
2022/01/07 08:55:11;;;;;;;;;;;5.20;89.30;;;;;;4920975;28;20792;-62
2022/01/07 08:57:36;;;;;;;;;;;5.30;89.30;;;;;;4948514;28;19925;-62
2022/01/07 09:00:02;;;;;;;;;;;5.20;89.80;;;;;;4923371;28;19918;-62
2022/01/07 09:02:28;;;;;;;;;;;5.30;89.20;;;;;;4930216;28;20591;-62
2022/01/07 09:04:54;;;;;;;;;;;5.20;89.00;;;;;;4920460;28;19926;-62
2022/01/07 09:07:19;;;;;;;;;;;5.20;89.00;;;;;;4930542;28;20346;-62
2022/01/07 09:09:44;;;;;;;;;;;5.20;89.00;;;;;;4917769;28;19919;-62
2022/01/07 09:12:10;;;;;;;;;;;5.20;88.80;;;;;;4923484;28;19926;-62
2022/01/07 09:14:35;;;;;;;;;;;5.20;88.90;;;;;;4929102;29;20054;-63
2022/01/07 09:17:01;;;;;;;;;;;5.20;88.80;;;;;;4945628;28;19930;-62
2022/01/07 09:19:28;;;;;;;;;;;5.20;88.90;;;;;;4913681;28;19923;-62
2022/01/07 09:21:55;;;;;;;;;;;5.30;88.80;;;;;;4922148;29;20386;-62
2022/01/07 09:24:21;;;;;;;;;;;5.20;88.60;;;;;;4907226;29;20358;-62
2022/01/07 09:26:46;;;;;;;;;;;5.30;88.70;;;;;;4915016;28;19982;-62
2022/01/07 09:29:12;;;;;;;;;;;5.30;88.60;;;;;;4908051;28;20010;-63
2022/01/07 09:31:38;;;;;;;;;;;5.30;88.60;;;;;;4918790;28;19923;-62
2022/01/07 09:34:03;;;;;;;;;;;5.30;88.50;;;;;;4909884;29;20428;-62
2022/01/07 09:36:29;;;;;;;;;;;5.40;88.40;;;;;;4920285;29;19973;-61
2022/01/07 09:38:54;;;;;;;;;;;5.40;88.30;;;;;;4906066;29;19932;-62
2022/01/07 09:41:20;;;;;;;;;;;5.40;88.10;;;;;;4931101;28;19993;-62
2022/01/07 09:43:45;;;;;;;;;;;5.40;88.00;;;;;;4912527;29;19925;-62
2022/01/07 09:46:11;;;;;;;;;;;5.40;88.00;;;;;;4912645;28;19921;-62
2022/01/07 09:48:37;;;;;;;;;;;5.40;88.10;;;;;;4924221;28;19918;-62
2022/01/07 09:51:02;;;;;;;;;;;5.40;88.30;;;;;;4926687;28;19918;-62
2022/01/07 09:53:28;;;;;;;;;;;5.40;88.40;;;;;;4921672;28;19919;-62
2022/01/07 09:55:54;;;;;;;;;;;5.40;88.50;;;;;;4918082;29;20005;-62
2022/01/07 09:58:19;;;;;;;;;;;5.40;88.40;;;;;;4923130;28;20342;-62
2022/01/07 10:00:45;;;;;;;;;;;5.50;88.50;;;;;;4920853;29;19923;-62
2022/01/07 10:03:11;;;;;;;;;;;5.40;88.40;;;;;;4912092;28;19926;-62
2022/01/07 10:05:46;;;;;;;;;;;5.60;88.30;;;;;;4916822;28;19930;-62
2022/01/07 10:08:17;;;;;;;;;;;5.60;88.00;;;;;;4924741;29;19933;-62
2022/01/07 10:10:42;;;;;;;;;;;5.50;87.70;;;;;;4908391;28;19968;-62
2022/01/07 10:13:08;;;;;;;;;;;5.50;87.70;;;;;;4904183;29;19981;-62
2022/01/07 10:15:34;;;;;;;;;;;5.50;87.60;;;;;;4905552;29;19918;-60
2022/01/07 10:18:01;;;;;;;;;;;5.50;88.30;;;;;;4923994;29;20442;-60
2022/01/07 10:20:29;;;;;;;;;;;5.50;87.60;;;;;;4905786;28;20299;-60
2022/01/07 10:22:56;;;;;;;;;;;5.60;87.50;;;;;;4941155;28;19915;-60
2022/01/07 10:25:22;;;;;;;;;;;5.60;87.40;;;;;;4925030;29;19929;-60
2022/01/07 10:27:48;;;;;;;;;;;5.60;87.70;;;;;;4917919;29;19941;-60
2022/01/07 10:30:14;;;;;;;;;;;5.60;87.60;;;;;;4901295;28;20027;-60
2022/01/07 10:32:40;;;;;;;;;;;5.60;87.50;;;;;;4918462;28;19926;-62
2022/01/07 10:35:13;;;;;;;;;;;5.70;87.60;;;;;;4917007;29;20051;-62
2022/01/07 10:37:49;;;;;;;;;;;5.70;87.50;;;;;;4918774;28;19996;-62
2022/01/07 10:40:26;;;;;;;;;;;5.70;87.60;;;;;;4920323;29;20016;-62
2022/01/07 10:43:06;;;;;;;;;;;5.70;87.50;;;;;;4939173;29;19919;-62
2022/01/07 10:45:31;;;;;;;;;;;5.70;87.50;;;;;;4920719;28;19918;-63
2022/01/07 10:47:57;;;;;;;;;;;5.70;87.60;;;;;;4918551;28;19953;-62
2022/01/07 10:50:23;;;;;;;;;;;5.70;87.30;;;;;;4904516;28;19927;-62
2022/01/07 10:52:48;;;;;;;;;;;5.80;87.30;;;;;;4919766;29;19922;-62
2022/01/07 10:55:15;;;;;;;;;;;5.80;87.20;;;;;;4924303;28;19977;-62
2022/01/07 10:57:42;;;;;;;;;;;5.80;87.10;;;;;;4918188;29;19927;-62
2022/01/07 11:00:08;;;;;;;;;;;5.80;87.10;;;;;;4928170;28;20363;-62
2022/01/07 11:02:34;;;;;;;;;;;5.80;87.20;;;;;;4930550;28;19926;-62
2022/01/07 11:05:00;;;;;;;;;;;5.80;87.50;;;;;;4925377;28;19948;-62
2022/01/07 11:07:25;;;;;;;;;;;5.90;87.50;;;;;;4920234;28;19930;-62
2022/01/07 11:09:51;;;;;;;;;;;5.90;87.60;;;;;;4897241;29;20383;-62
2022/01/07 11:12:16;;;;;;;;;;;5.90;87.30;;;;;;4921676;28;19926;-62
2022/01/07 11:14:42;;;;;;;;;;;6.00;87.40;;;;;;4914261;29;19922;-62
2022/01/07 11:17:10;;;;;;;;;;;6.00;87.20;;;;;;4918918;28;20023;-62
2022/01/07 11:19:41;;;;;;;;;;;6.00;87.20;;;;;;4926998;28;19918;-62
2022/01/07 11:22:07;;;;;;;;;;;6.00;87.10;;;;;;4927024;29;19919;-62
2022/01/07 11:24:43;;;;;;;;;;;6.00;87.10;;;;;;4910623;29;19918;-62
2022/01/07 11:27:08;;;;;;;;;;;6.10;87.20;;;;;;4910745;29;20342;-62
2022/01/07 11:29:46;;;;;;;;;;;6.10;87.30;;;;;;4929430;28;19914;-62
2022/01/07 11:32:24;;;;;;;;;;;6.10;87.20;;;;;;4942429;28;19997;-61
2022/01/07 11:34:50;;;;;;;;;;;6.10;87.20;;;;;;4951581;28;20350;-60
2022/01/07 11:37:34;;;;;;;;;;;6.10;87.20;;;;;;4931553;29;19994;-60
2022/01/07 11:40:00;;;;;;;;;;;6.20;87.00;;;;;;4942009;28;19932;-60
2022/01/07 11:42:41;;;;;;;;;;;6.20;87.10;;;;;;4925143;29;20279;-60
2022/01/07 11:45:27;;;;;;;;;;;6.20;86.80;;;;;;4911977;29;19940;-60
2022/01/07 11:47:52;;;;;;;;;;;6.20;86.50;;;;;;4945317;28;19954;-60
2022/01/07 11:50:18;;;;;;;;;;;6.20;86.60;;;;;;4910119;28;19922;-62
2022/01/07 11:52:54;;;;;;;;;;;6.20;86.70;;;;;;4910604;28;19953;-61
2022/01/07 11:55:26;;;;;;;;;;;6.30;86.70;;;;;;4906579;29;20486;-62
2022/01/07 11:58:11;;;;;;;;;;;6.30;86.70;;;;;;4945413;28;20013;-62
2022/01/07 12:00:56;;;;;;;;;;;6.30;86.40;;;;;;4928112;28;19995;-61
2022/01/07 12:03:41;;;;;;;;;;;6.30;86.40;;;;;;4944540;28;20520;-62
2022/01/07 12:06:31;;;;;;;;;;;6.40;86.40;;;;;;4942026;28;19918;-61
2022/01/07 12:09:07;;;;;;;;;;;6.40;86.40;;;;;;4946729;28;20290;-62
2022/01/07 12:11:34;;;;;;;;;;;6.40;86.40;;;;;;4943083;28;19958;-62
2022/01/07 12:13:59;;;;;;;;;;;6.40;86.30;;;;;;4911088;28;19965;-62
2022/01/07 12:16:25;;;;;;;;;;;6.40;86.20;;;;;;4925153;28;19926;-62
2022/01/07 12:18:51;;;;;;;;;;;6.50;86.10;;;;;;4926149;28;21498;-60
2022/01/07 12:21:17;;;;;;;;;;;6.40;86.00;;;;;;4924286;28;19967;-60
2022/01/07 12:23:43;;;;;;;;;;;6.40;86.00;;;;;;4923407;29;19957;-60
2022/01/07 12:26:08;;;;;;;;;;;6.50;85.90;;;;;;4945211;28;19957;-61
2022/01/07 12:28:37;;;;;;;;;;;6.50;85.80;;;;;;4908833;29;19918;-60
2022/01/07 12:31:07;;;;;;;;;;;6.50;85.70;;;;;;4915146;28;19925;-62
2022/01/07 12:33:32;;;;;;;;;;;6.50;85.80;;;;;;4920447;28;19927;-62
2022/01/07 12:35:58;;;;;;;;;;;6.60;86.00;;;;;;4922209;29;19918;-62
2022/01/07 12:38:23;;;;;;;;;;;6.50;85.90;;;;;;4922279;28;19942;-60
2022/01/07 12:40:52;;;;;;;;;;;6.50;86.00;;;;;;4906026;29;20493;-59
2022/01/07 12:43:22;;;;;;;;;;;6.60;86.00;;;;;;4908432;28;20378;-60
2022/01/07 12:45:54;;;;;;;;;;;6.60;86.10;;;;;;4930305;29;19945;-61
2022/01/07 12:48:29;;;;;;;;;;;6.60;85.90;;;;;;4914999;28;19954;-60
2022/01/07 12:50:58;;;;;;;;;;;6.60;85.90;;;;;;4926981;28;20351;-60
2022/01/07 12:53:24;;;;;;;;;;;6.60;85.90;;;;;;4917472;28;19929;-60
2022/01/07 12:55:49;;;;;;;;;;;6.60;85.90;;;;;;4908743;29;19919;-60
2022/01/07 12:58:15;;;;;;;;;;;6.60;85.70;;;;;;4927042;28;20421;-60
2022/01/07 13:00:40;;;;;;;;;;;6.60;85.60;;;;;;4910645;29;20017;-60
2022/01/07 13:03:06;;;;;;;;;;;6.70;85.60;;;;;;4928896;29;20009;-60
2022/01/07 13:05:36;;;;;;;;;;;6.60;85.50;;;;;;4924907;29;19919;-59
2022/01/07 13:08:09;;;;;;;;;;;6.60;85.50;;;;;;4925987;28;19923;-60
2022/01/07 13:10:35;;;;;;;;;;;6.60;85.50;;;;;;4903575;29;19989;-60
2022/01/07 13:13:04;;;;;;;;;;;6.60;85.60;;;;;;4918590;28;19932;-61
2022/01/07 13:15:32;;;;;;;;;;;6.60;85.30;;;;;;4924744;28;19923;-60
2022/01/07 13:18:12;;;;;;;;;;;6.70;85.20;;;;;;4943066;28;19922;-60
2022/01/07 13:20:37;;;;;;;;;;;6.70;85.10;;;;;;4907293;28;19969;-60
2022/01/07 13:23:03;;;;;;;;;;;6.70;85.40;;;;;;4906861;28;25037;-60
2022/01/07 13:25:28;;;;;;;;;;;6.70;85.50;;;;;;4927929;28;19918;-60
2022/01/07 13:27:54;;;;;;;;;;;6.70;85.90;;;;;;4902272;29;19930;-60
2022/01/07 13:30:32;;;;;;;;;;;6.70;85.90;;;;;;4921751;28;20119;-60
2022/01/07 13:33:05;;;;;;;;;;;6.60;85.80;;;;;;4903247;29;19919;-60
2022/01/07 13:35:30;;;;;;;;;;;6.60;85.90;;;;;;4921288;28;19926;-60
2022/01/07 13:37:55;;;;;;;;;;;6.60;86.10;;;;;;4911859;29;19918;-60
2022/01/07 13:40:27;;;;;;;;;;;6.50;86.30;;;;;;4907280;28;19922;-61
2022/01/07 13:43:04;;;;;;;;;;;6.60;86.50;;;;;;4901910;29;19919;-60
2022/01/07 13:45:29;;;;;;;;;;;6.60;86.50;;;;;;4905605;28;20029;-61
2022/01/07 13:48:02;;;;;;;;;;;6.60;86.60;;;;;;4908904;28;20025;-61
2022/01/07 13:50:30;;;;;;;;;;;6.60;86.60;;;;;;4928901;29;20397;-60
2022/01/07 13:52:56;;;;;;;;;;;6.50;86.60;;;;;;4913374;29;20405;-60
2022/01/07 13:55:28;;;;;;;;;;;6.50;87.00;;;;;;4931846;28;19926;-61
2022/01/07 13:58:06;;;;;;;;;;;6.50;87.20;;;;;;4924733;28;20017;-61
2022/01/07 14:00:31;;;;;;;;;;;6.50;87.30;;;;;;4932762;29;19922;-60
2022/01/07 14:02:57;;;;;;;;;;;6.50;87.60;;;;;;4922024;29;19960;-61
2022/01/07 14:05:22;;;;;;;;;;;6.50;87.70;;;;;;4930925;29;19922;-60
2022/01/07 14:07:53;;;;;;;;;;;6.50;87.90;;;;;;4912532;29;19933;-61
2022/01/07 14:10:19;;;;;;;;;;;6.50;87.70;;;;;;4906894;29;19919;-62
2022/01/07 14:12:45;;;;;;;;;;;6.50;87.80;;;;;;4924429;28;20168;-60
2022/01/07 14:15:10;;;;;;;;;;;6.50;88.10;;;;;;4944452;28;20181;-60
2022/01/07 14:17:39;;;;;;;;;;;6.50;88.20;;;;;;4911662;28;19976;-61
2022/01/07 14:20:05;;;;;;;;;;;6.50;88.10;;;;;;4937040;28;19921;-60
2022/01/07 14:22:35;;;;;;;;;;;6.50;88.70;;;;;;4925085;28;20165;-60
2022/01/07 14:25:00;;;;;;;;;;;6.50;88.10;;;;;;4913233;28;19930;-60
2022/01/07 14:27:31;;;;;;;;;;;6.20;88.10;;;;;;4922246;28;19929;-60
2022/01/07 14:29:57;;;;;;;;;;;6.40;88.30;;;;;;4932339;28;19921;-61
2022/01/07 14:32:23;;;;;;;;;;;6.40;88.40;;;;;;4924965;28;19918;-60
2022/01/07 14:34:48;;;;;;;;;;;6.40;88.30;;;;;;4925208;28;20339;-60
2022/01/07 14:37:15;;;;;;;;;;;6.40;88.70;;;;;;4914593;28;19973;-60
2022/01/07 14:39:41;;;;;;;;;;;6.40;88.50;;;;;;4930963;28;19926;-60
2022/01/07 14:42:06;;;;;;;;;;;6.40;88.50;;;;;;4923973;29;20004;-60